createdAt,value
2023-04-15T00:00:43.600Z,59.1
2023-04-15T00:12:35.975Z,59.5
2023-04-15T00:18:35.856Z,59.7
2023-04-15T00:24:36.293Z,60.6
2023-04-15T00:30:46.309Z,60.5
2023-04-15T00:36:35.857Z,60.6
2023-04-15T00:42:36.354Z,60.7
2023-04-15T00:48:36.054Z,61
2023-04-15T00:54:35.835Z,61.1
2023-04-15T01:00:52.161Z,61.4
2023-04-15T01:06:36.149Z,61.9
2023-04-15T01:12:36.266Z,62.2
2023-04-15T01:18:35.487Z,62.7
2023-04-15T01:24:35.140Z,62.7
2023-04-15T01:30:47.275Z,63
2023-04-15T01:36:35.819Z,63.1
2023-04-15T01:42:35.765Z,63.6
2023-04-15T01:48:35.466Z,63.6
2023-04-15T01:54:36.122Z,63.8
2023-04-15T02:00:48.074Z,63.9
2023-04-15T02:06:35.286Z,64
2023-04-15T02:12:35.196Z,64.3
2023-04-15T02:18:35.936Z,63.8
2023-04-15T02:24:35.762Z,64.1
2023-04-15T02:42:36.927Z,64.6
2023-04-15T02:48:35.953Z,64.5
2023-04-15T02:54:35.423Z,64.5
2023-04-15T03:00:47.032Z,64.7
2023-04-15T03:06:35.441Z,65.2
2023-04-15T03:12:35.675Z,65.5
2023-04-15T03:18:35.578Z,65.6
2023-04-15T03:24:35.456Z,65.5
2023-04-15T03:30:52.446Z,65.5
2023-04-15T03:36:35.583Z,65.4
2023-04-15T03:42:36.160Z,65.5
2023-04-15T03:48:35.241Z,65.6
2023-04-15T03:54:35.515Z,66.2
2023-04-15T04:00:51.333Z,66.1
2023-04-15T04:06:35.297Z,66.5
2023-04-15T04:12:35.398Z,66.5
2023-04-15T04:18:36.073Z,66.3
2023-04-15T04:24:35.243Z,66.3
2023-04-15T04:30:45.629Z,66.4
2023-04-15T04:36:36.294Z,67.7
2023-04-15T04:42:38.551Z,68
2023-04-15T04:48:37.070Z,68.6
2023-04-15T04:54:35.458Z,67.9
2023-04-15T05:00:52.615Z,67.8
2023-04-15T05:06:36.617Z,67.5
2023-04-15T05:12:36.063Z,67.5
2023-04-15T05:18:36.020Z,67.5
2023-04-15T05:24:36.611Z,68
2023-04-15T05:30:44.572Z,68.1
2023-04-15T05:36:35.223Z,68.4
2023-04-15T05:42:36.830Z,68.1
2023-04-15T05:48:36.054Z,67.9
2023-04-15T05:54:35.539Z,67.6
2023-04-15T06:00:51.077Z,68.3
2023-04-15T06:06:35.829Z,68.6
2023-04-15T06:12:35.690Z,67.7
2023-04-15T06:18:35.226Z,67.3
2023-04-15T06:24:36.566Z,65.7
2023-04-15T06:30:44.501Z,65.8
2023-04-15T06:36:35.474Z,64.8
2023-04-15T06:42:36.249Z,63.3
2023-04-15T06:48:36.641Z,62.5
2023-04-15T06:54:35.524Z,62.4
2023-04-15T07:00:47.618Z,62.8
2023-04-15T07:12:35.547Z,61.4
2023-04-15T07:18:35.702Z,61.1
2023-04-15T07:24:36.276Z,60
2023-04-15T07:30:44.787Z,60.2
2023-04-15T07:36:36.271Z,59.3
2023-04-15T07:42:35.129Z,59.7
2023-04-15T07:48:37.424Z,59.8
2023-04-15T07:54:35.557Z,59.7
2023-04-15T08:00:51.830Z,59.3
2023-04-15T08:06:35.874Z,58.7
2023-04-15T08:12:35.193Z,58
2023-04-15T08:18:35.437Z,59.1
2023-04-15T08:30:45.514Z,55.2
2023-04-15T08:36:35.575Z,55.3
2023-04-15T08:42:35.362Z,52.1
2023-04-15T08:48:36.192Z,51.5
2023-04-15T08:54:35.412Z,52.8
2023-04-15T09:01:11.806Z,52.1
2023-04-15T09:06:35.572Z,53.3
2023-04-15T09:12:36.259Z,48.2
2023-04-15T09:18:35.591Z,51
2023-04-15T09:24:35.598Z,47.6
2023-04-15T09:30:38.320Z,47.2
2023-04-15T09:36:35.542Z,48.4
2023-04-15T09:42:35.226Z,47.9
2023-04-15T09:48:36.332Z,48.7
2023-04-15T09:54:35.265Z,45.3
2023-04-15T10:00:52.198Z,45.4
2023-04-15T10:06:35.913Z,48.3
2023-04-15T10:12:35.585Z,48.2
2023-04-15T10:18:35.332Z,47.4
2023-04-15T10:24:35.209Z,48.6
2023-04-15T10:30:43.799Z,46.4
2023-04-15T10:48:35.786Z,47.5
2023-04-15T10:54:35.237Z,46.8
2023-04-15T11:00:38.474Z,46.7
2023-04-15T11:06:35.116Z,47.6
2023-04-15T11:12:35.321Z,47.6
2023-04-15T11:18:35.132Z,49.1
2023-04-15T11:24:35.220Z,49.7
2023-04-15T11:30:47.431Z,50.7
2023-04-15T11:36:35.454Z,50.3
2023-04-15T11:42:48.699Z,49.5
2023-04-15T11:48:35.414Z,52.2
2023-04-15T11:54:35.370Z,51.7
2023-04-15T12:00:47.173Z,52.6
2023-04-15T12:06:35.273Z,52.9
2023-04-15T12:12:35.519Z,51.6
2023-04-15T12:18:35.572Z,52.9
2023-04-15T12:24:35.392Z,54.8
2023-04-15T12:30:48.786Z,55.6
2023-04-15T12:36:35.809Z,56.8
2023-04-15T12:42:35.652Z,56.3
2023-04-15T12:48:35.450Z,57.2
2023-04-15T12:54:35.578Z,58.6
2023-04-15T13:00:52.826Z,59.8
2023-04-15T13:06:35.545Z,59
2023-04-15T13:12:36.177Z,59.4
2023-04-15T13:18:35.724Z,60.3
2023-04-15T13:24:36.160Z,60.9
2023-04-15T13:30:57.985Z,61.4
2023-04-15T13:36:35.717Z,61.8
2023-04-15T13:42:35.793Z,64.1
2023-04-15T13:48:35.677Z,64.3
2023-04-15T13:54:37.919Z,64.7
2023-04-15T14:00:53.284Z,65
2023-04-15T14:12:35.643Z,66.3
2023-04-15T14:18:36.060Z,65.5
2023-04-15T14:24:35.588Z,66.3
2023-04-15T14:30:50.970Z,65.3
2023-04-15T14:42:35.588Z,67.7
2023-04-15T14:48:35.644Z,67.5
2023-04-15T14:54:36.324Z,66.9
2023-04-15T15:00:55.145Z,66.2
2023-04-15T15:06:36.065Z,68.4
2023-04-15T15:12:35.938Z,67.4
2023-04-15T15:18:36.092Z,68.4
2023-04-15T15:24:36.264Z,69.6
2023-04-15T15:30:48.632Z,69.3
2023-04-15T15:36:35.728Z,70.8
2023-04-15T15:42:36.167Z,71.5
2023-04-15T15:48:35.785Z,72.6
2023-04-15T15:54:35.676Z,72.4
2023-04-15T16:01:01.009Z,73.2
2023-04-15T16:06:35.583Z,72.4
2023-04-15T16:12:36.166Z,72.6
2023-04-15T16:18:35.903Z,72.2
2023-04-15T16:24:35.552Z,72.7
2023-04-15T16:30:53.229Z,72.3
2023-04-15T16:36:35.445Z,72.5
2023-04-15T16:42:35.928Z,72.7
2023-04-15T16:48:35.623Z,72.3
2023-04-15T16:54:35.672Z,72.3
2023-04-15T17:00:56.262Z,73.4
2023-04-15T17:06:35.881Z,72.7
2023-04-15T17:12:35.769Z,72.9
2023-04-15T17:18:36.238Z,74.2
2023-04-15T17:24:35.486Z,74.3
2023-04-15T17:30:53.296Z,75.2
2023-04-15T17:36:35.587Z,74.6
2023-04-15T17:42:35.676Z,74.2
2023-04-15T17:48:36.366Z,74.3
2023-04-15T17:54:35.830Z,74.6
2023-04-15T18:00:57.810Z,74.6
2023-04-15T18:12:35.596Z,74.1
2023-04-15T18:18:35.923Z,74.2
2023-04-15T18:24:35.923Z,74.6
2023-04-15T18:30:51.739Z,75
2023-04-15T18:36:35.427Z,76.4
2023-04-15T18:42:35.840Z,76.7
2023-04-15T18:48:35.773Z,76.5
2023-04-15T18:54:35.786Z,76
2023-04-15T19:00:54.792Z,76.1
2023-04-15T19:06:36.328Z,76.2
2023-04-15T19:12:35.695Z,77.5
2023-04-15T19:18:35.499Z,78
2023-04-15T19:24:35.570Z,78.2
2023-04-15T19:30:51.327Z,77.7
2023-04-15T19:36:36.502Z,77.5
2023-04-15T19:42:35.872Z,77.2
2023-04-15T19:48:35.468Z,77.9
2023-04-15T20:00:51.287Z,79.1
2023-04-15T20:06:35.695Z,79.1
2023-04-15T20:12:50.509Z,79.2
2023-04-15T20:18:35.458Z,79.3
2023-04-15T20:24:35.636Z,79.8
2023-04-15T20:30:58.782Z,80.1
2023-04-15T20:36:36.177Z,80.6
2023-04-15T20:42:35.335Z,81.2
2023-04-15T20:48:35.988Z,81.1
2023-04-15T20:54:35.555Z,81.4
2023-04-15T21:00:55.354Z,81.7
2023-04-15T21:06:35.583Z,81.8
2023-04-15T21:12:35.508Z,81.3
2023-04-15T21:18:35.577Z,81.6
2023-04-15T21:24:35.525Z,82.1
2023-04-15T21:30:39.378Z,82.1
2023-04-15T21:36:35.833Z,81.8
2023-04-15T21:42:35.955Z,81.9
2023-04-15T21:48:35.445Z,82.1
2023-04-15T21:54:35.454Z,82.4
2023-04-15T22:01:13.580Z,81.9
2023-04-15T22:06:35.478Z,82.1
2023-04-15T22:12:35.491Z,81.6
2023-04-15T22:18:35.639Z,81.7
2023-04-15T22:24:40.415Z,81.5
2023-04-15T22:30:37.097Z,81.7
2023-04-15T22:36:35.544Z,82
2023-04-15T22:42:36.145Z,81.9
2023-04-15T22:48:35.465Z,81.9
2023-04-15T22:54:36.362Z,82.3
2023-04-15T23:00:39.239Z,82.5
2023-04-15T23:06:35.498Z,82.4
2023-04-15T23:12:35.458Z,82.5
2023-04-15T23:54:35.441Z,82.7
